Terminal Aerodrome Forecast
Issued by NWS Glasgow, MT

Home | Current Version | Previous Version | Text Only | Print | Product List | Glossary On
Versions: 1 2 3 4 5 6 7 8 9 10 11 12 13 14 15
000
FTUS45 KGGW 020533
TAFGGW
TAF
KGGW 020533Z 0206/0306 09009KT P6SM SCT200
     FM021500 14011KT P6SM FEW150
     FM021800 22009KT P6SM FEW150
     FM030000 33006KT P6SM SCT150=

USA.gov is the U.S. government's official web portal to all federal, state and local government web resources and services.